Time;durP1;ratioP1;P1;durP2;ratioP2;P2;SDS_P1;SDS_P2;PMS_P1;PMS_P2;Temp;Humidity;BMP_temperature;BMP_pressure;BME280_temperature;BME280_humidity;BME280_pressure;Samples;Min_cycle;Max_cycle;Signal;HPM_P1;HPM_P2
2022/09/09 00:01:37;;;;;;;0.73;0.50;;;;;;;16.91;68.18;98406.31;5051889;28;20443;-70
2022/09/09 00:04:22;;;;;;;1.15;0.50;;;;;;;16.76;68.40;98409.53;5032926;28;20064;-70
2022/09/09 00:06:58;;;;;;;1.35;0.50;;;;;;;16.68;68.72;98410.72;5052233;28;20041;-70
2022/09/09 00:09:29;;;;;;;0.57;0.43;;;;;;;16.70;68.98;98405.16;5018656;28;20055;-70
2022/09/09 00:12:09;;;;;;;0.40;0.40;;;;;;;16.70;68.82;98395.28;5052092;28;20045;-70
2022/09/09 00:14:48;;;;;;;0.30;0.30;;;;;;;16.70;69.21;98395.28;5052157;28;20051;-70
2022/09/09 00:17:39;;;;;;;0.80;0.60;;;;;;;16.68;68.93;98400.03;5048607;28;20045;-70
2022/09/09 00:20:14;;;;;;;0.63;0.63;;;;;;;16.66;69.24;98391.47;5043606;28;20124;-70
2022/09/09 00:22:54;;;;;;;1.08;0.63;;;;;;;16.67;68.91;98394.94;5052203;28;20045;-71
2022/09/09 00:25:34;;;;;;;2.47;0.60;;;;;;;16.63;69.06;98394.63;5017797;28;20045;-71
2022/09/09 00:28:00;;;;;;;1.05;0.60;;;;;;;16.58;69.53;98384.66;5037193;28;20041;-71
2022/09/09 00:30:33;;;;;;;1.42;0.80;;;;;;;16.57;69.22;98392.91;5038092;28;20041;-71
2022/09/09 00:33:11;;;;;;;0.50;0.50;;;;;;;16.56;69.38;98394.75;5037926;28;20503;-71
2022/09/09 00:35:44;;;;;;;0.60;0.60;;;;;;;16.58;69.67;98399.88;5055961;28;20037;-71
2022/09/09 00:38:19;;;;;;;0.30;0.30;;;;;;;16.59;69.84;98393.47;5037998;28;20055;-71
2022/09/09 00:41:03;;;;;;;0.65;0.50;;;;;;;16.57;69.25;98395.56;5038209;28;20072;-71
2022/09/09 00:43:32;;;;;;;1.17;0.57;;;;;;;16.51;69.05;98391.22;5038230;28;20052;-70
2022/09/09 00:46:14;;;;;;;1.25;0.60;;;;;;;16.48;69.52;98397.03;5038053;28;20083;-71
2022/09/09 00:48:43;;;;;;;1.05;0.60;;;;;;;16.46;69.13;98389.25;5010141;28;20041;-71
2022/09/09 00:51:24;;;;;;;0.65;0.65;;;;;;;16.40;69.75;98395.53;5015974;28;20045;-71
2022/09/09 00:54:35;;;;;;;0.80;0.60;;;;;;;16.33;69.43;98397.56;4998371;28;20081;-71
2022/09/09 00:57:19;;;;;;;0.68;0.40;;;;;;;16.28;69.74;98392.94;4974072;28;20046;-71
2022/09/09 00:59:50;;;;;;;0.57;0.57;;;;;;;16.23;70.19;98392.03;4974516;28;20097;-70
2022/09/09 01:02:30;;;;;;;1.08;0.50;;;;;;;16.22;70.51;98395.75;5000519;28;20061;-70
2022/09/09 01:05:26;;;;;;;1.35;0.50;;;;;;;16.23;70.12;98395.50;4998075;28;20140;-70
2022/09/09 01:07:54;;;;;;;0.40;0.40;;;;;;;16.27;70.49;98396.66;5015886;28;20061;-70
2022/09/09 01:10:46;;;;;;;0.90;0.50;;;;;;;16.31;70.62;98395.13;5015532;28;20056;-70
2022/09/09 01:13:22;;;;;;;0.65;0.52;;;;;;;16.34;69.98;98393.84;5016637;28;20041;-70
2022/09/09 01:15:50;;;;;;;1.77;0.80;;;;;;;16.35;70.16;98390.13;4998990;28;20409;-70
2022/09/09 01:18:19;;;;;;;0.98;0.70;;;;;;;16.34;70.24;98391.19;5023523;28;20087;-70
2022/09/09 01:21:03;;;;;;;1.00;0.40;;;;;;;16.34;70.36;98391.19;5019252;28;20492;-70
2022/09/09 01:23:39;;;;;;;;;;;;;;;16.34;69.95;98389.31;5056091;28;20128;-70
2022/09/09 01:26:28;;;;;;;0.75;0.60;;;;;;;16.33;70.38;98389.56;5053642;28;19924;-70
2022/09/09 01:28:58;;;;;;;1.15;0.40;;;;;;;16.35;70.55;98387.47;5037018;28;20055;-70
2022/09/09 01:31:41;;;;;;;0.50;0.50;;;;;;;16.37;70.82;98385.38;5037003;28;20049;-70
2022/09/09 01:34:14;;;;;;;0.35;0.35;;;;;;;16.39;70.60;98391.28;5037084;28;20048;-70
2022/09/09 01:37:00;;;;;;;1.50;0.45;;;;;;;16.42;70.53;98387.31;5036914;28;20128;-71
2022/09/09 01:39:28;;;;;;;1.55;1.10;;;;;;;16.43;70.63;98391.59;5020804;28;20041;-70
2022/09/09 01:42:04;;;;;;;0.85;0.50;;;;;;;16.45;70.65;98390.31;5022867;28;20072;-70
2022/09/09 01:44:32;;;;;;;0.85;0.52;;;;;;;16.47;70.38;98393.53;5037834;28;20069;-70
2022/09/09 01:47:00;;;;;;;1.20;0.60;;;;;;;16.48;70.58;98386.34;5055620;28;20044;-70
2022/09/09 01:49:27;;;;;;;0.82;0.47;;;;;;;16.52;70.30;98384.81;5037753;28;20064;-70
2022/09/09 01:51:56;;;;;;;0.85;0.55;;;;;;;16.53;69.85;98389.94;5038869;28;20041;-70
2022/09/09 01:54:31;;;;;;;1.45;0.70;;;;;;;16.53;69.80;98397.94;5036927;28;20504;-71
2022/09/09 01:57:30;;;;;;;0.68;0.40;;;;;;;16.52;69.77;98396.28;5036374;28;20052;-70
2022/09/09 02:00:08;;;;;;;0.50;0.50;;;;;;;16.54;70.21;98401.41;5020097;28;20061;-70
2022/09/09 02:02:59;;;;;;;1.13;0.80;;;;;;;16.55;69.73;98401.16;5038004;28;20068;-70
2022/09/09 02:05:40;;;;;;;1.08;0.43;;;;;;;16.55;70.02;98395.81;5036350;28;20534;-71
2022/09/09 02:08:24;;;;;;;0.85;0.45;;;;;;;16.53;70.00;98400.59;5021297;28;20080;-70
2022/09/09 02:11:14;;;;;;;1.27;0.60;;;;;;;16.52;69.85;98406.16;5022149;28;20447;-71
2022/09/09 02:13:59;;;;;;;1.55;0.60;;;;;;;16.50;69.54;98409.09;5037745;28;20048;-71
2022/09/09 02:16:26;;;;;;;;;;;;;;;16.49;69.86;98403.97;5054891;28;20033;-71
2022/09/09 02:19:14;;;;;;;1.17;0.50;;;;;;;16.45;69.62;98401.00;5033456;28;20019;-71
2022/09/09 02:21:59;;;;;;;1.17;0.60;;;;;;;16.43;70.11;98391.59;5017819;28;20053;-71
2022/09/09 02:24:30;;;;;;;2.17;0.57;;;;;;;16.43;70.12;98399.59;5018029;28;20140;-71
2022/09/09 02:27:22;;;;;;;1.73;0.90;;;;;;;16.41;69.99;98393.69;5034019;28;20155;-71
2022/09/09 02:29:51;;;;;;;0.35;0.35;;;;;;;16.40;70.09;98392.88;5034234;28;20473;-71
2022/09/09 02:32:25;;;;;;;1.10;0.63;;;;;;;16.43;70.25;98388.94;5017678;28;20045;-72
2022/09/09 02:34:59;;;;;;;0.70;0.47;;;;;;;16.48;70.09;98394.34;5034764;28;20042;-70
2022/09/09 02:37:28;;;;;;;;;;;;;;;16.52;69.60;98384.81;5035725;28;20049;-71
2022/09/09 02:39:56;;;;;;;3.35;2.00;;;;;;;16.51;69.94;98380.53;5016462;28;19921;-73
2022/09/09 02:42:23;;;;;;;2.03;1.40;;;;;;;16.52;69.68;98382.16;5032425;28;20075;-71
2022/09/09 02:44:52;;;;;;;1.67;1.30;;;;;;;16.52;69.84;98393.63;5032362;28;20489;-71
2022/09/09 02:47:36;;;;;;;1.65;1.23;;;;;;;16.55;70.05;98379.00;5038715;28;20044;-70
2022/09/09 02:50:22;;;;;;;1.15;1.00;;;;;;;16.57;69.64;98376.88;5003434;28;20570;-71
2022/09/09 02:53:07;;;;;;;1.10;0.80;;;;;;;16.58;69.58;98382.00;5035448;28;20404;-70
2022/09/09 02:55:48;;;;;;;0.60;0.60;;;;;;;16.59;69.76;98377.47;5019384;28;20049;-70
2022/09/09 02:58:18;;;;;;;0.60;0.60;;;;;;;16.57;69.52;98369.72;5035860;28;20041;-70
2022/09/09 03:00:57;;;;;;;2.20;0.73;;;;;;;16.61;69.51;98375.34;5020639;28;20056;-70
2022/09/09 03:03:25;;;;;;;1.33;0.50;;;;;;;16.63;69.20;98372.47;5035287;28;20045;-70
2022/09/09 03:05:51;;;;;;;1.10;0.63;;;;;;;16.63;69.65;98373.28;5018782;28;20047;-70
2022/09/09 03:08:18;;;;;;;0.40;0.40;;;;;;;16.61;69.13;98380.69;5034939;28;20053;-70
2022/09/09 03:10:46;;;;;;;1.65;0.60;;;;;;;16.58;69.56;98383.88;5018982;28;20531;-70
2022/09/09 03:13:15;;;;;;;1.27;0.50;;;;;;;16.53;69.28;98379.25;5019129;28;20045;-70
2022/09/09 03:15:42;;;;;;;0.63;0.50;;;;;;;16.49;69.62;98382.63;5035090;28;20048;-70
2022/09/09 03:18:14;;;;;;;0.98;0.50;;;;;;;16.44;69.21;98390.53;5011613;28;20037;-70
2022/09/09 03:20:41;;;;;;;0.88;0.63;;;;;;;16.37;69.31;98387.22;5034807;28;20045;-70
2022/09/09 03:23:09;;;;;;;0.90;0.60;;;;;;;16.27;69.59;98385.19;5034766;28;20036;-70
2022/09/09 03:25:49;;;;;;;0.45;0.40;;;;;;;16.18;69.91;98395.44;5034897;28;20048;-70
2022/09/09 03:28:20;;;;;;;0.70;0.50;;;;;;;16.15;70.32;98398.56;5034802;28;20052;-70
2022/09/09 03:30:48;;;;;;;2.15;0.55;;;;;;;16.12;70.11;98388.38;5018542;28;20080;-71
2022/09/09 03:33:16;;;;;;;0.90;0.63;;;;;;;16.09;70.22;98399.53;5034694;28;20505;-71
2022/09/09 03:35:47;;;;;;;1.25;0.70;;;;;;;16.04;70.38;98392.25;5018560;28;20445;-70
2022/09/09 03:38:15;;;;;;;0.80;0.70;;;;;;;16.00;69.85;98395.59;5018434;28;20040;-70
2022/09/09 03:40:49;;;;;;;3.60;0.77;;;;;;;15.96;70.56;98399.78;5034617;28;20045;-70
2022/09/09 03:43:17;;;;;;;0.68;0.57;;;;;;;15.94;71.10;98397.38;5034576;28;20049;-70
2022/09/09 03:45:47;;;;;;;1.63;0.70;;;;;;;15.92;70.78;98393.31;5018325;28;20037;-71
2022/09/09 03:48:15;;;;;;;0.65;0.57;;;;;;;15.92;71.08;98390.66;5026841;28;20041;-70
2022/09/09 03:50:50;;;;;;;0.55;0.50;;;;;;;15.91;71.05;98387.19;5018940;28;20071;-70
2022/09/09 03:53:19;;;;;;;2.08;0.77;;;;;;;15.91;70.88;98402.38;5034635;28;20045;-70
2022/09/09 03:55:46;;;;;;;1.25;0.70;;;;;;;15.91;70.69;98394.38;5034463;28;20076;-70
2022/09/09 03:58:15;;;;;;;1.48;0.57;;;;;;;15.92;71.31;98396.81;5018126;28;20044;-71
2022/09/09 04:03:57;;;;;;;0.65;0.50;;;;;;;15.90;71.38;98398.88;4889242;29;20051;-67
2022/09/09 04:06:25;;;;;;;1.13;0.95;;;;;;;15.93;71.49;98392.28;4897911;29;20525;-68
2022/09/09 04:08:52;;;;;;;2.13;0.50;;;;;;;15.96;71.30;98386.47;4892952;29;20053;-68
2022/09/09 04:11:20;;;;;;;1.85;0.70;;;;;;;15.97;71.00;98396.09;4877397;29;20057;-68
2022/09/09 04:13:51;;;;;;;1.20;0.45;;;;;;;15.98;70.92;98397.72;4893092;29;20096;-68
2022/09/09 04:16:18;;;;;;;0.68;0.45;;;;;;;16.02;71.17;98407.66;4893115;29;20041;-68
2022/09/09 04:18:45;;;;;;;0.30;0.30;;;;;;;16.09;71.18;98404.88;4908928;29;20573;-68
2022/09/09 04:21:15;;;;;;;0.85;0.47;;;;;;;16.13;71.14;98410.53;4893006;29;20064;-68
2022/09/09 04:23:42;;;;;;;0.85;0.40;;;;;;;16.19;71.19;98412.22;4877510;29;20056;-69
2022/09/09 04:26:09;;;;;;;0.30;0.30;;;;;;;16.25;70.57;98411.31;4877102;29;20069;-68
2022/09/09 04:28:37;;;;;;;0.30;0.30;;;;;;;16.30;70.94;98416.72;4877800;29;20057;-69
2022/09/09 04:31:15;;;;;;;0.40;0.40;;;;;;;16.34;70.94;98418.66;4894299;29;20081;-68
2022/09/09 04:33:43;;;;;;;0.50;0.45;;;;;;;16.40;70.32;98414.22;4882945;29;20134;-68
2022/09/09 04:36:10;;;;;;;1.00;0.50;;;;;;;16.40;70.65;98421.41;4877381;29;20053;-69
2022/09/09 04:38:37;;;;;;;0.82;0.45;;;;;;;16.42;70.77;98416.66;4892752;29;20513;-70
2022/09/09 04:41:04;;;;;;;0.47;0.47;;;;;;;16.46;70.56;98417.81;4892772;29;20052;-70
2022/09/09 04:43:32;;;;;;;0.95;0.50;;;;;;;16.47;70.40;98420.22;4877891;29;20049;-70
2022/09/09 04:46:01;;;;;;;1.42;0.60;;;;;;;16.48;70.43;98421.03;4893019;29;20052;-69
2022/09/09 04:48:28;;;;;;;0.70;0.43;;;;;;;16.49;70.18;98426.16;4892604;29;20105;-70
2022/09/09 04:51:01;;;;;;;1.05;0.60;;;;;;;16.48;70.25;98427.16;4908410;29;20053;-69
2022/09/09 04:53:29;;;;;;;1.45;0.60;;;;;;;16.46;70.41;98426.63;4908109;29;20053;-69
2022/09/09 04:56:05;;;;;;;1.20;0.50;;;;;;;16.44;70.61;98425.22;4893088;29;20072;-69
2022/09/09 04:58:35;;;;;;;0.90;0.50;;;;;;;16.44;70.37;98425.22;4877625;29;20083;-69
2022/09/09 05:01:06;;;;;;;1.35;0.60;;;;;;;16.47;70.40;98438.09;4893209;29;20478;-69
2022/09/09 05:03:33;;;;;;;0.98;0.65;;;;;;;16.49;70.44;98431.47;4893046;29;20052;-68
2022/09/09 05:06:05;;;;;;;0.40;0.40;;;;;;;16.49;70.41;98431.47;4885058;29;20078;-68
2022/09/09 05:08:32;;;;;;;0.47;0.40;;;;;;;16.52;70.73;98441.66;4893093;29;20078;-69
2022/09/09 05:10:59;;;;;;;0.75;0.45;;;;;;;16.56;70.58;98436.66;4893002;29;20052;-70
2022/09/09 05:13:27;;;;;;;1.13;0.60;;;;;;;16.62;70.62;98441.03;4908710;29;20139;-69
2022/09/09 05:15:54;;;;;;;0.45;0.45;;;;;;;16.64;70.09;98433.59;4880939;29;20437;-68
2022/09/09 05:18:22;;;;;;;1.20;0.60;;;;;;;16.60;70.29;98433.25;4896002;29;20425;-68
2022/09/09 05:20:50;;;;;;;1.02;0.50;;;;;;;16.65;70.39;98434.41;4896673;29;20052;-68
2022/09/09 05:23:17;;;;;;;1.20;0.55;;;;;;;16.68;70.14;98437.41;4911977;29;20049;-68
2022/09/09 05:25:55;;;;;;;0.65;0.60;;;;;;;16.72;70.34;98438.53;4912069;29;20043;-68
2022/09/09 05:28:22;;;;;;;1.13;0.50;;;;;;;16.80;70.17;98434.69;4896840;29;20470;-68
2022/09/09 05:30:56;;;;;;;1.55;0.50;;;;;;;16.87;70.09;98430.00;4880559;29;20100;-68
2022/09/09 05:33:23;;;;;;;2.00;0.77;;;;;;;16.91;69.94;98433.81;4895684;29;20079;-69
2022/09/09 05:35:58;;;;;;;2.28;0.82;;;;;;;17.02;69.85;98437.44;4881430;29;20045;-70
2022/09/09 05:38:26;;;;;;;1.30;0.50;;;;;;;17.07;69.64;98442.88;4881375;29;20049;-69
2022/09/09 05:40:56;;;;;;;1.23;0.60;;;;;;;17.10;69.50;98445.03;4911697;29;20410;-68
2022/09/09 05:43:25;;;;;;;1.55;0.50;;;;;;;17.14;69.52;98430.16;4896248;29;20049;-68
2022/09/09 05:46:09;;;;;;;0.52;0.50;;;;;;;17.23;69.70;98438.59;4881642;29;20132;-68
2022/09/09 05:48:39;;;;;;;1.45;0.60;;;;;;;17.31;69.08;98446.19;4896037;29;20057;-68
2022/09/09 05:51:09;;;;;;;1.27;0.60;;;;;;;17.38;69.04;98454.03;4880372;29;20056;-67
2022/09/09 05:53:36;;;;;;;0.40;0.40;;;;;;;17.42;69.01;98450.59;4880615;29;20457;-69
2022/09/09 05:56:12;;;;;;;1.48;0.50;;;;;;;17.48;69.33;98454.97;4881420;29;20060;-68
2022/09/09 05:58:38;;;;;;;0.43;0.40;;;;;;;17.56;69.11;98461.78;4880968;29;20053;-68
2022/09/09 06:01:10;;;;;;;0.38;0.38;;;;;;;17.64;68.66;98461.34;4879611;29;20055;-68
2022/09/09 06:03:38;;;;;;;1.55;0.50;;;;;;;17.70;68.63;98468.38;4918555;29;20462;-68
2022/09/09 06:06:15;;;;;;;1.60;0.70;;;;;;;17.69;68.78;98472.09;4894774;29;20049;-68
2022/09/09 06:08:45;;;;;;;2.28;1.05;;;;;;;17.73;68.73;98469.75;4895213;29;20060;-67
2022/09/09 06:11:23;;;;;;;2.08;0.85;;;;;;;17.74;68.80;98460.69;4910596;29;20041;-68
2022/09/09 06:13:54;;;;;;;3.55;1.00;;;;;;;17.76;68.92;98471.97;4879465;29;20155;-67
2022/09/09 06:16:23;;;;;;;1.08;0.82;;;;;;;17.73;68.57;98467.09;4910247;29;20117;-68
2022/09/09 06:18:51;;;;;;;0.85;0.73;;;;;;;17.70;68.79;98464.91;4880395;29;20049;-67
2022/09/09 06:21:20;;;;;;;3.45;0.90;;;;;;;17.66;69.09;98467.25;4894554;29;20087;-68
2022/09/09 06:23:48;;;;;;;1.58;0.52;;;;;;;17.61;69.15;98458.38;4894697;29;20148;-70
2022/09/09 06:26:17;;;;;;;1.45;0.75;;;;;;;17.54;69.41;98461.19;4894189;29;20462;-69
2022/09/09 06:28:47;;;;;;;0.60;0.55;;;;;;;17.52;69.43;98463.31;4894568;29;20057;-68
2022/09/09 06:31:21;;;;;;;4.22;0.90;;;;;;;17.55;69.32;98463.66;4894305;29;20097;-69
2022/09/09 06:33:54;;;;;;;1.00;0.70;;;;;;;17.61;69.85;98467.19;4894465;29;20057;-69
2022/09/09 06:36:25;;;;;;;1.13;0.63;;;;;;;17.69;69.61;98466.75;4909470;29;20051;-69
2022/09/09 06:38:53;;;;;;;1.25;0.65;;;;;;;17.79;69.59;98464.25;4894288;29;20049;-69
2022/09/09 06:41:21;;;;;;;1.52;0.90;;;;;;;17.88;69.16;98464.66;4880244;29;20579;-69
2022/09/09 06:43:49;;;;;;;2.05;0.98;;;;;;;17.93;69.41;98461.22;4878903;29;20053;-69
2022/09/09 06:46:27;;;;;;;2.42;1.35;;;;;;;17.99;69.41;98450.31;4894510;29;20085;-68
2022/09/09 06:48:55;;;;;;;2.55;0.95;;;;;;;18.08;69.00;98458.72;4894756;29;20505;-67
2022/09/09 06:51:24;;;;;;;2.17;0.80;;;;;;;18.17;69.35;98456.44;4895102;29;20052;-67
2022/09/09 06:53:54;;;;;;;1.83;1.00;;;;;;;18.28;69.25;98464.31;4880701;29;20081;-68
2022/09/09 06:56:27;;;;;;;2.05;0.70;;;;;;;18.39;69.00;98462.56;4893989;29;20045;-68
2022/09/09 06:58:58;;;;;;;1.63;0.80;;;;;;;18.55;68.65;98458.19;4910115;29;20045;-68
2022/09/09 07:01:31;;;;;;;1.70;0.80;;;;;;;18.68;68.17;98452.41;4894212;29;20053;-69
2022/09/09 07:04:02;;;;;;;3.13;1.20;;;;;;;18.77;68.17;98466.16;4894107;29;20045;-69
2022/09/09 07:06:34;;;;;;;1.85;0.80;;;;;;;18.81;67.88;98462.72;4894187;29;20049;-69
2022/09/09 07:09:04;;;;;;;1.67;0.70;;;;;;;18.81;68.17;98460.03;4893915;29;20079;-68
2022/09/09 07:11:41;;;;;;;3.70;1.10;;;;;;;18.88;68.04;98451.00;4878380;29;20049;-69
2022/09/09 07:14:12;;;;;;;2.22;0.85;;;;;;;18.95;67.88;98462.31;4878110;29;20136;-68
2022/09/09 07:16:39;;;;;;;1.90;0.73;;;;;;;18.99;67.57;98466.91;4893481;29;20049;-68
2022/09/09 07:19:06;;;;;;;2.38;0.95;;;;;;;18.99;67.31;98464.25;4893674;29;20511;-68
2022/09/09 07:21:33;;;;;;;1.88;0.95;;;;;;;19.00;67.62;98460.50;4909111;29;20052;-68
2022/09/09 07:24:01;;;;;;;2.17;0.80;;;;;;;19.09;67.17;98465.38;4893689;29;20068;-69
2022/09/09 07:26:30;;;;;;;2.10;0.85;;;;;;;19.12;67.08;98464.88;4909586;29;20053;-68
2022/09/09 07:28:59;;;;;;;2.22;0.80;;;;;;;19.18;67.43;98470.00;4910050;29;20049;-69
2022/09/09 07:31:30;;;;;;;1.60;0.70;;;;;;;19.34;67.16;98467.44;4879103;29;20049;-68
2022/09/09 07:33:59;;;;;;;2.05;0.80;;;;;;;19.40;66.82;98469.09;4886547;29;20104;-68
2022/09/09 07:36:29;;;;;;;2.38;0.63;;;;;;;19.46;66.54;98476.91;4893455;29;20072;-69
2022/09/09 07:39:03;;;;;;;2.65;0.63;;;;;;;19.50;66.42;98474.50;4894715;29;20051;-70
2022/09/09 07:41:42;;;;;;;1.85;0.75;;;;;;;19.53;66.35;98474.81;4894335;29;20515;-69
2022/09/09 07:44:12;;;;;;;1.70;0.75;;;;;;;19.54;65.67;98470.25;4878072;29;20049;-69
2022/09/09 07:46:41;;;;;;;3.25;0.90;;;;;;;19.55;65.83;98475.38;4878343;29;20394;-68
2022/09/09 07:49:10;;;;;;;1.02;0.63;;;;;;;19.57;65.57;98482.34;4878462;29;20057;-68
2022/09/09 07:51:39;;;;;;;1.77;0.63;;;;;;;19.63;65.41;98484.81;4893680;29;20124;-69
2022/09/09 07:54:09;;;;;;;2.25;0.70;;;;;;;19.72;65.27;98483.28;4878586;29;20056;-69
2022/09/09 07:56:39;;;;;;;2.13;0.80;;;;;;;19.78;65.50;98481.41;4893848;29;20060;-69
2022/09/09 07:59:07;;;;;;;1.58;0.80;;;;;;;19.85;65.31;98483.88;4863599;29;20470;-69
2022/09/09 08:01:40;;;;;;;2.58;0.75;;;;;;;19.83;65.19;98478.75;4893840;29;20101;-69
2022/09/09 08:04:14;;;;;;;1.67;0.80;;;;;;;19.85;64.86;98479.31;4893827;29;20051;-69
2022/09/09 08:06:48;;;;;;;1.67;1.00;;;;;;;19.87;64.59;98482.53;4890506;29;20141;-68
2022/09/09 08:09:17;;;;;;;2.42;1.10;;;;;;;19.86;64.16;98490.84;4891204;29;20136;-68
2022/09/09 08:11:46;;;;;;;1.50;0.80;;;;;;;19.79;64.28;98493.75;4890383;29;20052;-69
2022/09/09 08:14:13;;;;;;;2.13;0.80;;;;;;;19.74;64.42;98497.22;4889957;29;20080;-68
2022/09/09 08:16:44;;;;;;;1.40;0.68;;;;;;;19.72;64.53;98502.03;4889395;29;20048;-69
2022/09/09 08:19:14;;;;;;;1.85;0.60;;;;;;;19.69;64.56;98502.56;4889825;29;20112;-70
2022/09/09 08:21:43;;;;;;;4.10;1.10;;;;;;;19.61;64.12;98507.56;4874386;29;20057;-69
2022/09/09 08:24:11;;;;;;;1.70;0.77;;;;;;;19.51;64.08;98513.66;4890069;29;20050;-68
2022/09/09 08:26:41;;;;;;;2.13;0.80;;;;;;;19.46;64.27;98521.66;4889558;29;20152;-69
2022/09/09 08:29:11;;;;;;;3.17;0.90;;;;;;;19.50;64.26;98512.84;4889964;29;20579;-69
2022/09/09 08:31:40;;;;;;;2.60;1.00;;;;;;;19.59;64.07;98518.53;4860117;29;20045;-69
2022/09/09 08:34:08;;;;;;;2.55;1.13;;;;;;;19.67;63.38;98517.28;4908143;29;20068;-69
2022/09/09 08:36:40;;;;;;;3.83;1.10;;;;;;;19.64;62.90;98523.97;4888509;29;20052;-68
2022/09/09 08:39:08;;;;;;;2.17;0.90;;;;;;;19.68;62.84;98517.03;4892934;29;20563;-68
2022/09/09 08:41:41;;;;;;;2.83;0.60;;;;;;;19.73;62.55;98506.34;4893086;29;20071;-68
2022/09/09 08:44:19;;;;;;;2.00;0.85;;;;;;;19.87;62.46;98509.34;4895555;29;20053;-69
2022/09/09 08:47:08;;;;;;;2.67;0.90;;;;;;;20.15;61.63;98505.47;4884672;29;20078;-70
2022/09/09 08:49:58;;;;;;;1.67;0.80;;;;;;;20.34;61.39;98500.44;4916890;29;20053;-70
2022/09/09 08:52:31;;;;;;;1.40;0.60;;;;;;;20.38;61.21;98501.53;4881736;29;20140;-69
2022/09/09 08:55:35;;;;;;;3.30;1.17;;;;;;;20.26;61.10;98493.72;4896801;29;20069;-69
2022/09/09 08:58:16;;;;;;;;;;;;;;;20.09;61.06;98506.53;4896923;29;20076;-70
2022/09/09 09:00:49;;;;;;;2.42;1.00;;;;;;;20.15;61.04;98507.34;4896929;29;19924;-69
2022/09/09 09:03:28;;;;;;;2.28;1.00;;;;;;;20.32;60.34;98501.78;4888353;29;20409;-69
2022/09/09 09:06:06;;;;;;;1.85;0.80;;;;;;;20.60;60.29;98508.59;4888538;29;20057;-69
2022/09/09 09:08:40;;;;;;;1.83;0.93;;;;;;;20.74;59.50;98504.34;4896229;29;20052;-69
2022/09/09 09:11:07;;;;;;;2.25;1.02;;;;;;;20.77;58.66;98507.28;4896206;29;20049;-69
2022/09/09 09:13:40;;;;;;;1.30;0.75;;;;;;;20.88;58.23;98502.75;4897714;29;20060;-69
2022/09/09 09:16:23;;;;;;;3.05;0.85;;;;;;;20.94;58.04;98496.34;4897329;29;20064;-69
2022/09/09 09:18:51;;;;;;;1.75;0.93;;;;;;;20.95;57.58;98491.75;4897555;29;20045;-71
2022/09/09 09:21:31;;;;;;;1.15;0.70;;;;;;;20.94;57.76;98493.63;4882012;29;20470;-70
2022/09/09 09:24:00;;;;;;;1.17;0.60;;;;;;;20.93;57.12;98491.19;4897571;29;20053;-70
2022/09/09 09:26:34;;;;;;;1.10;0.73;;;;;;;20.89;56.92;98498.19;4897203;29;20047;-69
2022/09/09 09:29:12;;;;;;;2.63;0.70;;;;;;;20.97;56.89;98498.47;4896996;29;20099;-69
2022/09/09 09:31:45;;;;;;;1.63;0.95;;;;;;;21.15;56.52;98502.53;4882566;29;20049;-70
2022/09/09 09:34:12;;;;;;;1.45;0.90;;;;;;;21.44;55.86;98494.72;4882628;29;20056;-69
2022/09/09 09:36:45;;;;;;;2.03;1.00;;;;;;;21.76;55.68;98501.69;4897748;29;20053;-69
2022/09/09 09:39:27;;;;;;;2.22;0.90;;;;;;;22.07;55.08;98498.88;4881936;29;20053;-69
2022/09/09 09:42:17;;;;;;;2.97;1.10;;;;;;;22.15;54.53;98485.69;4897185;29;20056;-68
2022/09/09 09:44:50;;;;;;;2.42;1.00;;;;;;;22.12;54.57;98488.91;4894846;29;20124;-70
2022/09/09 09:47:21;;;;;;;3.20;1.25;;;;;;;22.24;54.22;98486.72;4895417;29;20052;-69
2022/09/09 09:49:59;;;;;;;3.22;1.15;;;;;;;22.26;53.70;98478.38;4895736;29;20580;-70
2022/09/09 09:52:32;;;;;;;2.70;0.90;;;;;;;22.28;53.47;98473.50;4895544;29;20113;-70
2022/09/09 09:55:03;;;;;;;1.27;0.77;;;;;;;22.28;53.51;98464.63;4911233;29;20093;-70
2022/09/09 09:57:34;;;;;;;2.75;1.00;;;;;;;22.21;53.21;98465.75;4879532;29;20092;-70
2022/09/09 10:00:17;;;;;;;2.83;1.10;;;;;;;22.05;52.35;98464.19;4894618;29;20517;-70
2022/09/09 10:02:52;;;;;;;1.88;0.60;;;;;;;21.84;52.49;98476.91;4895042;29;20085;-70
2022/09/09 10:05:26;;;;;;;3.67;1.15;;;;;;;21.82;52.84;98465.59;4895388;29;20145;-68
2022/09/09 10:08:13;;;;;;;1.83;0.98;;;;;;;21.80;52.68;98470.47;4895203;29;20072;-69
2022/09/09 10:10:42;;;;;;;4.05;1.13;;;;;;;21.73;52.44;98464.56;4895228;29;20109;-68
2022/09/09 10:13:23;;;;;;;2.45;1.15;;;;;;;21.74;52.57;98458.91;4880831;29;20508;-68
2022/09/09 10:16:46;;;;;;;2.47;0.90;;;;;;;21.86;52.41;98460.47;4931355;23;20340;-68
2022/09/09 10:19:16;;;;;;;2.70;0.70;;;;;;;21.83;52.27;98466.41;4854497;29;20061;-66
2022/09/09 10:21:57;;;;;;;2.15;0.90;;;;;;;21.79;51.99;98460.75;4855702;29;20061;-67
2022/09/09 10:24:36;;;;;;;0.90;0.70;;;;;;;21.65;52.04;98463.22;4880408;29;20113;-68
2022/09/09 10:27:16;;;;;;;3.63;0.75;;;;;;;21.71;51.90;98464.81;4886851;29;20057;-68
2022/09/09 10:29:52;;;;;;;2.08;1.00;;;;;;;21.66;51.50;98464.84;4869756;29;20053;-66
2022/09/09 10:32:37;;;;;;;2.33;0.70;;;;;;;21.69;51.69;98468.88;4885900;29;20171;-67
2022/09/09 10:35:25;;;;;;;2.40;0.85;;;;;;;21.83;51.22;98467.19;4914231;29;20048;-68
2022/09/09 10:37:59;;;;;;;4.43;1.15;;;;;;;22.00;50.54;98467.69;4920559;29;20055;-68
2022/09/09 10:40:32;;;;;;;0.88;0.88;;;;;;;22.19;50.25;98475.19;4918314;29;20071;-69
2022/09/09 10:43:21;;;;;;;2.90;1.20;;;;;;;22.31;49.81;98477.56;4917869;29;20107;-69
2022/09/09 10:46:03;;;;;;;1.80;1.10;;;;;;;22.28;49.78;98470.03;4917630;29;20055;-69
2022/09/09 10:48:50;;;;;;;1.92;0.77;;;;;;;22.16;50.08;98471.13;4918224;29;20036;-69
2022/09/09 10:51:40;;;;;;;2.17;0.82;;;;;;;22.16;50.08;98473.84;4918784;29;20111;-69
2022/09/09 10:54:27;;;;;;;2.20;0.70;;;;;;;22.16;50.23;98471.13;4916264;29;20526;-69
2022/09/09 10:57:04;;;;;;;1.20;0.85;;;;;;;22.21;50.53;98471.13;4917147;29;20048;-67
2022/09/09 10:59:40;;;;;;;1.67;0.60;;;;;;;22.24;51.08;98467.88;4900433;29;20056;-67
2022/09/09 11:02:30;;;;;;;2.05;0.70;;;;;;;22.29;51.24;98463.53;4914095;29;20040;-68
2022/09/09 11:04:59;;;;;;;3.55;1.00;;;;;;;22.47;50.90;98468.31;4907771;29;20055;-69
2022/09/09 11:07:47;;;;;;;1.73;0.75;;;;;;;22.52;50.74;98462.88;4915526;29;20111;-69
2022/09/09 11:10:52;;;;;;;2.78;1.00;;;;;;;22.55;50.78;98465.03;4917773;29;20052;-67
2022/09/09 11:13:25;;;;;;;1.80;0.70;;;;;;;22.61;50.54;98466.59;4899685;29;20461;-67
2022/09/09 11:16:00;;;;;;;2.60;0.80;;;;;;;22.64;50.51;98465.25;4917404;29;20052;-67
2022/09/09 11:18:29;;;;;;;1.90;0.80;;;;;;;22.71;50.22;98457.66;4915823;29;20078;-68
2022/09/09 11:21:00;;;;;;;1.42;0.60;;;;;;;22.85;50.07;98465.91;4900668;29;20444;-68
2022/09/09 11:23:43;;;;;;;1.30;0.63;;;;;;;23.03;48.94;98464.47;4899895;29;20095;-68
2022/09/09 11:26:18;;;;;;;1.13;0.50;;;;;;;23.22;48.60;98452.69;4915323;29;20048;-69
2022/09/09 11:29:13;;;;;;;0.73;0.60;;;;;;;23.40;47.95;98461.16;4916967;29;20436;-69
2022/09/09 11:32:18;;;;;;;1.02;0.50;;;;;;;23.71;47.40;98461.69;4917015;29;20044;-69
2022/09/09 11:34:51;;;;;;;1.50;0.70;;;;;;;23.99;47.17;98460.00;4878621;29;20064;-69
2022/09/09 11:37:30;;;;;;;1.27;0.60;;;;;;;24.20;46.39;98450.56;4896094;29;20064;-69
2022/09/09 11:39:56;;;;;;;1.27;0.47;;;;;;;24.31;46.40;98443.13;4897711;29;20053;-69
2022/09/09 11:42:24;;;;;;;1.70;0.70;;;;;;;24.14;45.48;98461.72;4896276;29;20108;-69
2022/09/09 11:44:54;;;;;;;0.73;0.50;;;;;;;23.76;46.10;98468.91;4896652;29;20048;-68
2022/09/09 11:47:31;;;;;;;1.75;0.73;;;;;;;23.43;46.31;98463.28;4896403;29;20139;-69
2022/09/09 11:50:09;;;;;;;1.00;0.50;;;;;;;23.12;47.20;98460.06;4896580;29;20059;-67
2022/09/09 11:52:42;;;;;;;0.80;0.60;;;;;;;22.91;48.38;98459.44;4896389;29;20075;-67
2022/09/09 11:55:32;;;;;;;1.73;0.80;;;;;;;22.66;48.59;98463.09;4896493;29;20044;-68
2022/09/09 11:58:00;;;;;;;1.92;0.65;;;;;;;22.37;49.14;98469.19;4897643;29;20063;-69
2022/09/09 12:00:34;;;;;;;1.27;0.73;;;;;;;22.10;49.83;98482.19;4896404;29;20314;-69
2022/09/09 12:03:01;;;;;;;1.20;0.70;;;;;;;21.73;50.65;98486.88;4892345;29;20490;-69
2022/09/09 12:05:44;;;;;;;1.40;0.68;;;;;;;21.25;52.30;98501.69;4907519;29;20492;-69
2022/09/09 12:08:27;;;;;;;2.38;0.77;;;;;;;20.73;52.66;98525.00;4916092;29;20492;-69
2022/09/09 12:10:59;;;;;;;1.85;0.68;;;;;;;20.07;55.25;98548.91;4915605;29;20385;-70